Time;durP1;ratioP1;P1;durP2;ratioP2;P2;SDS_P1;SDS_P2;PMS_P1;PMS_P2;Temp;Humidity;BMP_temperature;BMP_pressure;BME280_temperature;BME280_humidity;BME280_pressure;Samples;Min_cycle;Max_cycle;Signal;HPM_P1;HPM_P2
2022/12/08 00:02:05;;;;;;;2.65;1.35;;;;;;;;;;4437562;32;20509;-75
2022/12/08 00:09:20;;;;;;;;;;;;;;;;;;4439954;32;20026;-76
2022/12/08 00:09:59;;;;;;;3.30;1.05;;;;;;;;;;4440913;32;20085;-76
2022/12/08 00:12:24;;;;;;;;;;;;;;;;;;4439252;32;20365;-76
2022/12/08 00:14:49;;;;;;;3.55;0.98;;;;;;;;;;4439240;32;20294;-75
2022/12/08 00:17:15;;;;;;;2.10;1.20;;;;;;;;;;4440478;32;20056;-76
2022/12/08 00:19:41;;;;;;;4.80;1.05;;;;;;;;;;4438863;32;20060;-75
2022/12/08 00:22:06;;;;;;;;;;;;;;;;;;4439366;32;20022;-76
2022/12/08 00:24:33;;;;;;;3.03;1.42;;;;;;;;;;4438942;32;19969;-75
2022/12/08 00:26:59;;;;;;;3.95;1.60;;;;;;;;;;4439634;32;20242;-75
2022/12/08 00:29:24;;;;;;;;;;;;;;;;;;4438966;32;20033;-75
2022/12/08 00:31:49;;;;;;;6.53;2.90;;;;;;;;;;4424422;32;19994;-75
2022/12/08 00:34:14;;;;;;;;;;;;;;;;;;4441993;32;20154;-74
2022/12/08 00:36:40;;;;;;;9.68;5.15;;;;;;;;;;4441497;32;19995;-75
2022/12/08 00:39:05;;;;;;;7.07;6.10;;;;;;;;;;4426372;32;20045;-75
2022/12/08 00:44:15;;;;;;;9.35;7.07;;;;;;;;;;4439418;32;19962;-75
2022/12/08 00:46:40;;;;;;;9.27;8.18;;;;;;;;;;4438155;32;20078;-74
2022/12/08 00:49:06;;;;;;;;;;;;;;;;;;4438211;32;20061;-74
2022/12/08 00:51:31;;;;;;;11.05;8.77;;;;;;;;;;4439004;32;19941;-75
2022/12/08 00:53:56;;;;;;;;;;;;;;;;;;4440360;32;20162;-73
2022/12/08 00:56:21;;;;;;;12.30;9.93;;;;;;;;;;4437777;32;19933;-73
2022/12/08 00:58:46;;;;;;;11.93;10.18;;;;;;;;;;4439762;32;20037;-74
2022/12/08 01:01:11;;;;;;;;;;;;;;;;;;4437546;32;20033;-74
2022/12/08 01:03:37;;;;;;;13.55;11.10;;;;;;;;;;4437892;32;19991;-75
2022/12/08 01:06:02;;;;;;;;;;;;;;;;;;4438928;32;20151;-75
2022/12/08 01:08:27;;;;;;;11.70;10.60;;;;;;;;;;4438363;32;19950;-74
2022/12/08 01:10:52;;;;;;;;;;;;;;;;;;4439049;32;20156;-75
2022/12/08 01:13:17;;;;;;;14.75;9.65;;;;;;;;;;4442801;32;19932;-75
2022/12/08 01:15:42;;;;;;;12.55;9.55;;;;;;;;;;4427503;32;20088;-76
2022/12/08 01:18:07;;;;;;;;;;;;;;;;;;4444100;32;20030;-76
2022/12/08 01:20:33;;;;;;;13.10;9.10;;;;;;;;;;4444339;32;19980;-76
2022/12/08 01:22:58;;;;;;;10.50;8.75;;;;;;;;;;4440132;32;20374;-76
2022/12/08 01:25:23;;;;;;;;;;;;;;;;;;4440227;32;20415;-77
2022/12/08 01:27:50;;;;;;;9.88;7.93;;;;;;;;;;4439011;32;19941;-77
2022/12/08 01:30:15;;;;;;;12.43;6.22;;;;;;;;;;4439202;32;20159;-76
2022/12/08 01:32:40;;;;;;;;;;;;;;;;;;4438003;32;20427;-76
2022/12/08 01:35:06;;;;;;;6.72;4.53;;;;;;;;;;4437992;32;19941;-76
2022/12/08 01:37:31;;;;;;;;;;;;;;;;;;4438262;32;20128;-76
2022/12/08 01:39:56;;;;;;;9.82;4.50;;;;;;;;;;4437297;32;20008;-75
2022/12/08 01:42:21;;;;;;;6.82;4.20;;;;;;;;;;4422914;32;20471;-75
2022/12/08 01:44:47;;;;;;;;;;;;;;;;;;4439026;32;20059;-74
2022/12/08 01:47:12;;;;;;;11.30;4.44;;;;;;;;;;4437798;32;19997;-74
2022/12/08 01:49:37;;;;;;;;;;;;;;;;;;4437669;32;20030;-75
2022/12/08 01:52:05;;;;;;;8.98;3.72;;;;;;;;;;4437188;32;20350;-74
2022/12/08 01:54:33;;;;;;;9.77;4.05;;;;;;;;;;4437772;32;20343;-74
2022/12/08 01:57:05;;;;;;;6.62;4.57;;;;;;;;;;4438007;32;20029;-75
2022/12/08 01:59:31;;;;;;;8.48;4.68;;;;;;;;;;4438387;32;20052;-74
2022/12/08 02:01:57;;;;;;;6.40;3.60;;;;;;;;;;4437771;32;20137;-75
2022/12/08 02:04:22;;;;;;;;;;;;;;;;;;4437355;32;20042;-75
2022/12/08 02:06:48;;;;;;;8.15;4.35;;;;;;;;;;4437821;32;19930;-75
2022/12/08 02:09:13;;;;;;;;;;;;;;;;;;4422472;32;20151;-75
2022/12/08 02:11:38;;;;;;;9.48;5.68;;;;;;;;;;4436567;32;19967;-74
2022/12/08 02:14:06;;;;;;;8.20;4.90;;;;;;;;;;4437434;32;20034;-75
2022/12/08 02:16:43;;;;;;;10.95;5.75;;;;;;;;;;4422993;32;20077;-75
2022/12/08 02:19:14;;;;;;;10.98;6.35;;;;;;;;;;4436675;32;20336;-76
2022/12/08 02:21:49;;;;;;;8.27;6.07;;;;;;;;;;4438076;32;20029;-74
2022/12/08 02:24:20;;;;;;;12.48;7.12;;;;;;;;;;4422443;32;20038;-74
2022/12/08 02:26:59;;;;;;;18.90;7.47;;;;;;;;;;4437140;32;20033;-74
2022/12/08 02:29:27;;;;;;;17.37;7.68;;;;;;;;;;4437286;32;20064;-74
2022/12/08 02:32:07;;;;;;;13.80;8.07;;;;;;;;;;4437190;32;20064;-74
2022/12/08 02:35:02;;;;;;;13.85;9.50;;;;;;;;;;4437192;32;20046;-74
2022/12/08 02:37:30;;;;;;;11.57;7.62;;;;;;;;;;4420256;32;20038;-74
2022/12/08 02:40:06;;;;;;;15.63;9.57;;;;;;;;;;4437402;32;20079;-74
2022/12/08 02:42:52;;;;;;;12.77;8.27;;;;;;;;;;4437769;32;20029;-74
2022/12/08 02:45:17;;;;;;;11.77;8.10;;;;;;;;;;4439143;32;20092;-75
2022/12/08 02:47:42;;;;;;;;;;;;;;;;;;4442032;32;20052;-75
2022/12/08 02:50:08;;;;;;;17.85;9.55;;;;;;;;;;4439797;32;20245;-74
2022/12/08 02:52:33;;;;;;;17.92;9.95;;;;;;;;;;4437737;32;20101;-73
2022/12/08 02:55:02;;;;;;;9.05;4.85;;;;;;;;;;4421688;32;20033;-73
2022/12/08 02:57:46;;;;;;;8.13;4.12;;;;;;;;;;4422299;32;20067;-75
2022/12/08 03:00:15;;;;;;;12.63;4.43;;;;;;;;;;4422942;32;20038;-74
2022/12/08 03:03:00;;;;;;;6.47;2.95;;;;;;;;;;4435889;32;20029;-74
2022/12/08 03:05:46;;;;;;;3.83;2.20;;;;;;;;;;4436749;32;20029;-73
2022/12/08 03:08:17;;;;;;;6.18;1.90;;;;;;;;;;4422431;32;20345;-74
2022/12/08 03:10:48;;;;;;;5.28;1.40;;;;;;;;;;4437721;32;20050;-74
2022/12/08 03:13:16;;;;;;;6.62;1.52;;;;;;;;;;4422089;32;20060;-74
2022/12/08 03:15:44;;;;;;;6.78;1.30;;;;;;;;;;4436070;32;20085;-75
2022/12/08 03:18:11;;;;;;;5.37;1.42;;;;;;;;;;4437429;32;20117;-74
2022/12/08 03:20:37;;;;;;;12.23;1.85;;;;;;;;;;4436048;32;20072;-75
2022/12/08 03:23:04;;;;;;;5.80;2.25;;;;;;;;;;4436501;32;20029;-74
2022/12/08 03:25:30;;;;;;;4.22;2.33;;;;;;;;;;4435748;32;20025;-75
2022/12/08 03:27:56;;;;;;;9.18;1.60;;;;;;;;;;4436681;32;20055;-73
2022/12/08 03:30:21;;;;;;;;;;;;;;;;;;4437747;32;20049;-75
2022/12/08 03:32:55;;;;;;;8.48;1.98;;;;;;;;;;4437236;32;20072;-75
2022/12/08 03:35:24;;;;;;;4.78;1.05;;;;;;;;;;4437019;32;20133;-74
2022/12/08 03:37:50;;;;;;;8.13;1.80;;;;;;;;;;4436043;32;20037;-74
2022/12/08 03:40:15;;;;;;;;;;;;;;;;;;4437984;32;20430;-74
2022/12/08 03:42:40;;;;;;;3.42;1.30;;;;;;;;;;4437194;32;19933;-74
2022/12/08 03:45:05;;;;;;;;;;;;;;;;;;4436429;32;20156;-73
2022/12/08 03:47:30;;;;;;;6.32;1.10;;;;;;;;;;4437251;32;19949;-74
2022/12/08 03:49:55;;;;;;;4.12;1.37;;;;;;;;;;4436136;32;20091;-75
2022/12/08 03:52:20;;;;;;;;;;;;;;;;;;4436992;32;20445;-75
2022/12/08 03:54:46;;;;;;;3.74;1.18;;;;;;;;;;4452376;32;19984;-75
2022/12/08 03:57:11;;;;;;;;;;;;;;;;;;4453481;32;20077;-74
2022/12/08 03:59:36;;;;;;;5.50;1.08;;;;;;;;;;4446717;32;20097;-74
2022/12/08 04:02:01;;;;;;;5.18;1.23;;;;;;;;;;4439368;32;20025;-75
2022/12/08 04:04:26;;;;;;;7.28;1.65;;;;;;;;;;4438814;32;20025;-74
2022/12/08 04:06:51;;;;;;;38.08;19.45;;;;;;;;;;4436525;32;20025;-75
2022/12/08 04:09:17;;;;;;;;;;;;;;;;;;4437630;32;20034;-74
2022/12/08 04:11:42;;;;;;;3.14;1.32;;;;;;;;;;4438539;32;19945;-74
2022/12/08 04:14:07;;;;;;;;;;;;;;;;;;4428692;32;20025;-73
2022/12/08 04:16:32;;;;;;;6.50;1.37;;;;;;;;;;4426304;32;19941;-74
2022/12/08 04:18:57;;;;;;;;;;;;;;;;;;4423457;32;20159;-74
2022/12/08 04:21:22;;;;;;;4.68;1.23;;;;;;;;;;4436207;32;19937;-74
2022/12/08 04:23:48;;;;;;;;;;;;;;;;;;4422490;32;20133;-74
2022/12/08 04:26:13;;;;;;;3.62;1.05;;;;;;;;;;4435420;32;19981;-74
2022/12/08 04:28:38;;;;;;;;;;;;;;;;;;4437055;32;20125;-75
2022/12/08 04:31:04;;;;;;;5.10;1.37;;;;;;;;;;4435418;32;19952;-74
2022/12/08 04:33:29;;;;;;;;;;;;;;;;;;4436402;32;20205;-74
2022/12/08 04:35:54;;;;;;;3.82;1.74;;;;;;;;;;4435004;32;19940;-73
2022/12/08 04:38:19;;;;;;;;;;;;;;;;;;4436228;32;20383;-73
2022/12/08 04:40:44;;;;;;;8.25;1.20;;;;;;;;;;4421809;32;19952;-72
2022/12/08 04:43:09;;;;;;;;;;;;;;;;;;4436203;32;20121;-74
2022/12/08 04:45:37;;;;;;;5.15;1.12;;;;;;;;;;4421691;32;20314;-73
2022/12/08 04:48:03;;;;;;;6.85;1.05;;;;;;;;;;4436797;32;20141;-74
2022/12/08 04:50:28;;;;;;;;;;;;;;;;;;4438970;32;20060;-73
2022/12/08 04:52:53;;;;;;;7.70;1.52;;;;;;;;;;4439634;32;19937;-73
2022/12/08 04:55:18;;;;;;;9.43;1.48;;;;;;;;;;4438749;32;20092;-74
2022/12/08 04:57:43;;;;;;;;;;;;;;;;;;4439873;32;20033;-73
2022/12/08 05:00:09;;;;;;;5.30;1.17;;;;;;;;;;4438106;32;19936;-73
2022/12/08 05:02:34;;;;;;;4.70;1.02;;;;;;;;;;4438176;32;20127;-74
2022/12/08 05:04:59;;;;;;;;;;;;;;;;;;4440674;32;20041;-74
2022/12/08 05:07:24;;;;;;;7.50;1.83;;;;;;;;;;4438374;32;19933;-74
2022/12/08 05:09:50;;;;;;;;;;;;;;;;;;4438328;32;20055;-74
2022/12/08 05:12:15;;;;;;;3.95;1.55;;;;;;;;;;4437758;32;19966;-74
2022/12/08 05:14:40;;;;;;;;;;;;;;;;;;4438812;32;20156;-73
2022/12/08 05:17:05;;;;;;;7.62;2.33;;;;;;;;;;4438032;32;19980;-74
2022/12/08 05:19:30;;;;;;;;;;;;;;;;;;4437903;32;20485;-74
2022/12/08 05:21:55;;;;;;;4.93;1.60;;;;;;;;;;4438858;32;19955;-73
2022/12/08 05:24:20;;;;;;;;;;;;;;;;;;4436729;32;20535;-73
2022/12/08 05:26:46;;;;;;;10.52;1.58;;;;;;;;;;4437635;32;20032;-73
2022/12/08 05:29:11;;;;;;;;;;;;;;;;;;4438590;32;20026;-73
2022/12/08 05:31:36;;;;;;;4.90;1.20;;;;;;;;;;4422501;32;20290;-74
2022/12/08 05:34:01;;;;;;;;;;;;;;;;;;4438041;32;20121;-73
2022/12/08 05:36:26;;;;;;;7.87;2.03;;;;;;;;;;4425486;32;19969;-73
2022/12/08 05:38:51;;;;;;;;;;;;;;;;;;4441698;32;20052;-73
2022/12/08 05:41:18;;;;;;;8.13;1.60;;;;;;;;;;4438298;32;20009;-75
2022/12/08 05:43:43;;;;;;;2.12;0.95;;;;;;;;;;4438395;32;20128;-73
2022/12/08 05:46:08;;;;;;;;;;;;;;;;;;4437420;32;20052;-73
2022/12/08 05:48:34;;;;;;;3.30;1.08;;;;;;;;;;4438119;32;19948;-74
2022/12/08 05:50:59;;;;;;;;;;;;;;;;;;4439398;32;20117;-73
2022/12/08 05:53:24;;;;;;;3.15;1.02;;;;;;;;;;4436483;32;19932;-73
2022/12/08 05:55:50;;;;;;;;;;;;;;;;;;4436783;32;20359;-73
2022/12/08 05:58:16;;;;;;;15.23;4.80;;;;;;;;;;4423608;32;19937;-74
2022/12/08 06:00:41;;;;;;;2.72;1.73;;;;;;;;;;4435889;32;20100;-74
2022/12/08 06:03:06;;;;;;;;;;;;;;;;;;4436671;32;20033;-74
2022/12/08 06:05:32;;;;;;;3.53;0.70;;;;;;;;;;4438019;32;19969;-74
2022/12/08 06:07:57;;;;;;;0.90;0.77;;;;;;;;;;4436118;32;20092;-74
2022/12/08 06:10:22;;;;;;;;;;;;;;;;;;4439210;32;20097;-74
2022/12/08 06:12:48;;;;;;;2.62;0.95;;;;;;;;;;4437455;32;20010;-74
2022/12/08 06:15:13;;;;;;;;;;;;;;;;;;4423071;32;20197;-75
2022/12/08 06:17:38;;;;;;;3.40;0.70;;;;;;;;;;4437379;32;19937;-74
2022/12/08 06:20:03;;;;;;;;;;;;;;;;;;4437211;32;20167;-74
2022/12/08 06:22:29;;;;;;;1.15;0.60;;;;;;;;;;4422932;32;19956;-75
2022/12/08 06:24:54;;;;;;;5.03;1.05;;;;;;;;;;4437975;32;20376;-74
2022/12/08 06:27:19;;;;;;;;;;;;;;;;;;4424874;32;20033;-74
2022/12/08 06:29:44;;;;;;;4.82;1.05;;;;;;;;;;4437690;32;19978;-74
2022/12/08 06:32:09;;;;;;;;;;;;;;;;;;4437908;32;20128;-74
2022/12/08 06:34:34;;;;;;;0.98;0.50;;;;;;;;;;4438055;32;20109;-75
2022/12/08 06:36:59;;;;;;;;;;;;;;;;;;4436787;32;20536;-74
2022/12/08 06:39:25;;;;;;;1.88;0.70;;;;;;;;;;4437649;32;20617;-75
2022/12/08 06:44:34;;;;;;;1.05;0.95;;;;;;;;;;4437244;32;19939;-75
2022/12/08 06:46:59;;;;;;;;;;;;;;;;;;4439064;32;20466;-75
2022/12/08 06:49:24;;;;;;;3.76;0.98;;;;;;;;;;4437323;32;19952;-75
2022/12/08 06:51:49;;;;;;;;;;;;;;;;;;4436618;32;20411;-76
2022/12/08 06:54:14;;;;;;;5.80;1.30;;;;;;;;;;4436269;32;20040;-76
2022/12/08 06:56:39;;;;;;;;;;;;;;;;;;4435159;32;20172;-75
2022/12/08 06:59:05;;;;;;;2.03;1.37;;;;;;;;;;4435885;32;19984;-75
2022/12/08 07:01:30;;;;;;;;;;;;;;;;;;4436793;32;20151;-75
2022/12/08 07:03:55;;;;;;;5.55;1.70;;;;;;;;;;4437096;32;19974;-75
2022/12/08 07:06:20;;;;;;;;;;;;;;;;;;4439487;32;20225;-74
2022/12/08 07:08:45;;;;;;;6.10;2.30;;;;;;;;;;4441043;32;19962;-74
2022/12/08 07:11:10;;;;;;;;;;;;;;;;;;4424089;32;20522;-74
2022/12/08 07:13:36;;;;;;;4.04;1.28;;;;;;;;;;4420941;32;20032;-73
2022/12/08 07:16:01;;;;;;;;;;;;;;;;;;4437546;32;20052;-74
2022/12/08 07:18:26;;;;;;;9.30;3.10;;;;;;;;;;4437768;32;19969;-74
2022/12/08 07:20:51;;;;;;;;;;;;;;;;;;4436224;32;20189;-74
2022/12/08 07:23:16;;;;;;;3.70;1.55;;;;;;;;;;4435932;32;19929;-73
2022/12/08 07:25:41;;;;;;;2.47;1.23;;;;;;;;;;4435860;32;20053;-73
2022/12/08 07:28:06;;;;;;;;;;;;;;;;;;4436197;32;20021;-73
2022/12/08 07:30:31;;;;;;;4.15;1.50;;;;;;;;;;4436094;32;20273;-75
2022/12/08 07:32:57;;;;;;;;;;;;;;;;;;4436059;32;20158;-73
2022/12/08 07:35:22;;;;;;;5.26;1.26;;;;;;;;;;4437049;32;19932;-74
2022/12/08 07:37:47;;;;;;;;;;;;;;;;;;4437557;32;20053;-73
2022/12/08 07:40:12;;;;;;;3.05;1.70;;;;;;;;;;4436134;32;19941;-74
2022/12/08 07:42:37;;;;;;;;;;;;;;;;;;4435253;32;20169;-74
2022/12/08 07:45:03;;;;;;;21.75;2.80;;;;;;;;;;4435040;32;20362;-74
2022/12/08 07:47:28;;;;;;;;;;;;;;;;;;4435426;32;20125;-74
2022/12/08 07:49:53;;;;;;;5.18;1.95;;;;;;;;;;4435994;32;19945;-73
2022/12/08 07:52:18;;;;;;;;;;;;;;;;;;4423766;32;20633;-73
2022/12/08 07:54:43;;;;;;;3.17;1.90;;;;;;;;;;4437081;32;19933;-73
2022/12/08 07:57:08;;;;;;;;;;;;;;;;;;4442363;32;20177;-74
2022/12/08 07:59:34;;;;;;;4.10;2.16;;;;;;;;;;4439994;32;19957;-73
2022/12/08 08:01:59;;;;;;;;;;;;;;;;;;4422631;32;20055;-74
2022/12/08 08:04:24;;;;;;;16.73;3.67;;;;;;;;;;4437294;32;19933;-74
2022/12/08 08:06:49;;;;;;;;;;;;;;;;;;4435543;32;20335;-74
2022/12/08 08:09:14;;;;;;;7.32;2.78;;;;;;;;;;4425175;32;19940;-74
2022/12/08 08:11:40;;;;;;;;;;;;;;;;;;4420912;32;20098;-74
2022/12/08 08:14:05;;;;;;;5.05;2.05;;;;;;;;;;4424199;32;19989;-75
2022/12/08 08:16:30;;;;;;;;;;;;;;;;;;4432705;32;20092;-75
2022/12/08 08:18:55;;;;;;;4.25;2.45;;;;;;;;;;4435289;32;19970;-74
2022/12/08 08:21:20;;;;;;;;;;;;;;;;;;4435929;32;20094;-74
2022/12/08 08:23:46;;;;;;;6.05;3.50;;;;;;;;;;4441034;32;19983;-73
2022/12/08 08:26:11;;;;;;;;;;;;;;;;;;4449151;32;20052;-74
2022/12/08 08:28:36;;;;;;;6.90;3.20;;;;;;;;;;4446190;32;19947;-74
2022/12/08 08:31:02;;;;;;;;;;;;;;;;;;4443501;32;20505;-74
2022/12/08 08:33:27;;;;;;;10.02;6.15;;;;;;;;;;4443519;32;19984;-75
2022/12/08 08:35:52;;;;;;;;;;;;;;;;;;4449458;32;20173;-75
2022/12/08 08:38:17;;;;;;;6.43;4.53;;;;;;;;;;4437177;32;19968;-74
2022/12/08 08:40:42;;;;;;;12.65;5.10;;;;;;;;;;4423287;32;20034;-74
2022/12/08 08:43:07;;;;;;;11.38;4.95;;;;;;;;;;4423658;32;20069;-74
2022/12/08 08:45:32;;;;;;;;;;;;;;;;;;4427372;32;20453;-74
2022/12/08 08:47:58;;;;;;;8.75;3.87;;;;;;;;;;4438122;32;20295;-75
2022/12/08 08:50:23;;;;;;;7.55;3.20;;;;;;;;;;4432884;32;20103;-74
2022/12/08 08:52:49;;;;;;;;;;;;;;;;;;4417797;32;20462;-74
2022/12/08 08:55:14;;;;;;;6.35;2.90;;;;;;;;;;4429714;32;20098;-74
2022/12/08 08:57:39;;;;;;;;;;;;;;;;;;4427719;32;20064;-74
2022/12/08 09:00:05;;;;;;;3.95;2.47;;;;;;;;;;4429708;32;19936;-75
2022/12/08 09:02:30;;;;;;;;;;;;;;;;;;4414133;32;20154;-74
2022/12/08 09:04:55;;;;;;;4.15;2.22;;;;;;;;;;4427851;32;19960;-74
2022/12/08 09:07:20;;;;;;;;;;;;;;;;;;4430782;32;20057;-74
2022/12/08 09:09:45;;;;;;;6.03;2.97;;;;;;;;;;4428561;32;19945;-74
2022/12/08 09:12:10;;;;;;;;;;;;;;;;;;4428780;32;20530;-73
2022/12/08 09:14:36;;;;;;;5.00;2.50;;;;;;;;;;4428663;32;19941;-74
2022/12/08 09:17:01;;;;;;;9.40;2.03;;;;;;;;;;4426735;32;20064;-75
2022/12/08 09:19:26;;;;;;;;;;;;;;;;;;4429327;32;20094;-75
2022/12/08 09:21:51;;;;;;;4.35;1.80;;;;;;;;;;4428458;32;20353;-76
2022/12/08 09:24:16;;;;;;;;;;;;;;;;;;4429553;32;20097;-73
2022/12/08 09:26:43;;;;;;;8.23;2.53;;;;;;;;;;4429416;32;19937;-75
2022/12/08 09:29:09;;;;;;;6.47;3.30;;;;;;;;;;4428822;32;20192;-74
2022/12/08 09:31:34;;;;;;;6.97;2.80;;;;;;;;;;4427532;32;20111;-75
2022/12/08 09:33:59;;;;;;;;;;;;;;;;;;4413658;32;20038;-75
2022/12/08 09:36:25;;;;;;;64.30;14.23;;;;;;;;;;4428537;32;20282;-75
2022/12/08 09:38:52;;;;;;;3.58;2.37;;;;;;;;;;4429809;32;20041;-75
2022/12/08 09:41:36;;;;;;;4.22;1.80;;;;;;;;;;4427679;32;20065;-73
2022/12/08 09:44:13;;;;;;;5.60;2.72;;;;;;;;;;4428060;32;20092;-75
2022/12/08 09:46:39;;;;;;;4.07;2.35;;;;;;;;;;4427017;32;20126;-74
2022/12/08 09:49:04;;;;;;;;;;;;;;;;;;4429115;32;20463;-76
2022/12/08 09:51:31;;;;;;;5.12;3.80;;;;;;;;;;4430708;32;19980;-74
2022/12/08 09:53:58;;;;;;;5.12;4.18;;;;;;;;;;4428288;32;20172;-74
2022/12/08 09:56:26;;;;;;;49.08;11.15;;;;;;;;;;4428361;32;20092;-74
2022/12/08 09:58:55;;;;;;;31.17;8.68;;;;;;;;;;4429434;32;20114;-74
2022/12/08 10:01:20;;;;;;;8.60;5.72;;;;;;;;;;4428450;32;20086;-75
2022/12/08 10:03:46;;;;;;;;;;;;;;;;;;4433146;32;20038;-75
2022/12/08 10:06:23;;;;;;;8.50;6.18;;;;;;;;;;4431867;32;19976;-75
2022/12/08 10:08:48;;;;;;;12.23;7.43;;;;;;;;;;4428753;32;20196;-75
2022/12/08 10:11:13;;;;;;;;;;;;;;;;;;4429756;32;20030;-75
2022/12/08 10:13:56;;;;;;;9.32;6.35;;;;;;;;;;4427921;32;19986;-75
2022/12/08 10:16:26;;;;;;;9.38;6.70;;;;;;;;;;4418619;32;20583;-74
2022/12/08 10:18:54;;;;;;;12.32;7.32;;;;;;;;;;4425613;32;20060;-74
2022/12/08 10:21:21;;;;;;;10.23;7.35;;;;;;;;;;4426116;32;20442;-75
2022/12/08 10:23:48;;;;;;;11.05;7.43;;;;;;;;;;4425371;32;20409;-73
2022/12/08 10:26:16;;;;;;;9.48;7.07;;;;;;;;;;4424312;32;20103;-74
2022/12/08 10:28:41;;;;;;;8.20;6.87;;;;;;;;;;4425653;32;20026;-74
2022/12/08 10:31:06;;;;;;;;;;;;;;;;;;4425168;32;20095;-73
2022/12/08 10:33:32;;;;;;;14.70;7.22;;;;;;;;;;4426059;32;19951;-75
2022/12/08 10:35:58;;;;;;;;;;;;;;;;;;4420643;32;20133;-74
2022/12/08 10:38:33;;;;;;;8.88;5.28;;;;;;;;;;4425052;32;20000;-74
2022/12/08 10:41:19;;;;;;;6.87;4.30;;;;;;;;;;4430169;32;20057;-74
2022/12/08 10:44:27;;;;;;;8.32;4.18;;;;;;;;;;4417961;32;20427;-76
2022/12/08 10:46:52;;;;;;;;;;;;;;;;;;4410593;32;20105;-74
2022/12/08 10:49:24;;;;;;;35.65;8.90;;;;;;;;;;4426931;32;19944;-75
2022/12/08 10:51:49;;;;;;;95.50;16.30;;;;;;;;;;4424929;32;20633;-74
2022/12/08 10:54:15;;;;;;;;;;;;;;;;;;4426707;32;20033;-73
2022/12/08 10:56:51;;;;;;;239.50;39.97;;;;;;;;;;4426918;32;19937;-74
2022/12/08 10:59:17;;;;;;;94.65;17.30;;;;;;;;;;4428226;32;20077;-75
2022/12/08 11:01:42;;;;;;;;;;;;;;;;;;4428573;32;20087;-74
2022/12/08 11:04:12;;;;;;;14.20;5.85;;;;;;;;;;4425568;32;19941;-74
2022/12/08 11:06:38;;;;;;;20.37;6.28;;;;;;;;;;4427757;32;20120;-73
2022/12/08 11:09:03;;;;;;;;;;;;;;;;;;4428210;32;21213;-74
2022/12/08 11:11:48;;;;;;;87.55;16.58;;;;;;;;;;4427760;32;19944;-73
2022/12/08 11:14:27;;;;;;;11.25;2.83;;;;;;;;;;4428210;32;20125;-74
2022/12/08 11:16:53;;;;;;;5.62;2.10;;;;;;;;;;4426854;32;20367;-73
2022/12/08 11:19:19;;;;;;;5.68;2.30;;;;;;;;;;4427221;32;20076;-73
2022/12/08 11:21:45;;;;;;;;;;;;;;;;;;4427604;32;20471;-74
2022/12/08 11:24:13;;;;;;;13.23;3.65;;;;;;;;;;4429146;32;20355;-73
2022/12/08 11:26:38;;;;;;;2.83;1.77;;;;;;;;;;4426998;32;20058;-74
2022/12/08 11:29:03;;;;;;;;;;;;;;;;;;4421909;32;20088;-74
2022/12/08 11:31:38;;;;;;;2.95;1.30;;;;;;;;;;4429306;32;20377;-74
2022/12/08 11:34:05;;;;;;;5.72;2.17;;;;;;;;;;4426742;32;20091;-73
2022/12/08 11:36:32;;;;;;;4.25;2.15;;;;;;;;;;4425411;32;20090;-73
2022/12/08 11:38:59;;;;;;;7.80;3.28;;;;;;;;;;4426985;32;20076;-73
2022/12/08 11:41:27;;;;;;;2.87;2.15;;;;;;;;;;4426546;32;20459;-73
2022/12/08 11:43:57;;;;;;;4.87;2.85;;;;;;;;;;4426660;32;20136;-73
2022/12/08 11:46:24;;;;;;;4.05;3.20;;;;;;;;;;4426289;32;20069;-73
2022/12/08 11:48:57;;;;;;;3.87;3.05;;;;;;;;;;4427440;32;20057;-73
2022/12/08 11:51:46;;;;;;;3.75;2.78;;;;;;;;;;4427118;32;20038;-73
2022/12/08 11:54:26;;;;;;;6.53;2.92;;;;;;;;;;4419598;32;20041;-74
2022/12/08 11:56:59;;;;;;;5.93;3.05;;;;;;;;;;4415475;32;20099;-74
2022/12/08 11:59:29;;;;;;;5.10;3.15;;;;;;;;;;4427331;32;20073;-74
2022/12/08 12:01:55;;;;;;;7.55;3.40;;;;;;;;;;4418360;32;20093;-75
2022/12/08 12:04:39;;;;;;;6.70;3.83;;;;;;;;;;4426307;32;20037;-74
2022/12/08 12:07:11;;;;;;;4.95;3.72;;;;;;;;;;4426223;32;20046;-73
2022/12/08 12:10:02;;;;;;;9.35;4.57;;;;;;;;;;4418570;32;20083;-74
2022/12/08 12:12:47;;;;;;;5.32;2.80;;;;;;;;;;4400194;32;20101;-74
2022/12/08 12:15:24;;;;;;;4.62;2.28;;;;;;;;;;4427558;32;20117;-74
2022/12/08 12:17:51;;;;;;;3.08;1.80;;;;;;;;;;4421921;32;20119;-74
2022/12/08 12:20:31;;;;;;;3.67;2.17;;;;;;;;;;4426899;32;20111;-73
2022/12/08 12:23:07;;;;;;;3.33;1.30;;;;;;;;;;4426103;32;20397;-72
2022/12/08 12:25:34;;;;;;;2.80;1.10;;;;;;;;;;4426631;32;20128;-72
2022/12/08 12:28:02;;;;;;;2.60;0.88;;;;;;;;;;4429195;32;20215;-72
2022/12/08 12:30:31;;;;;;;3.05;1.40;;;;;;;;;;4427413;32;20077;-73
2022/12/08 12:32:57;;;;;;;4.18;1.23;;;;;;;;;;4425839;32;20091;-73
2022/12/08 12:35:35;;;;;;;2.55;1.45;;;;;;;;;;4426237;32;20079;-73
2022/12/08 12:38:03;;;;;;;2.85;1.60;;;;;;;;;;4425881;32;20385;-73
2022/12/08 12:40:33;;;;;;;4.70;1.75;;;;;;;;;;4425778;32;20082;-73
2022/12/08 12:43:01;;;;;;;4.80;2.10;;;;;;;;;;4417920;32;20450;-73
2022/12/08 12:45:29;;;;;;;2.92;1.50;;;;;;;;;;4425340;32;20029;-74
2022/12/08 12:47:54;;;;;;;3.55;1.90;;;;;;;;;;4426858;32;20045;-74
2022/12/08 12:50:19;;;;;;;;;;;;;;;;;;4427360;32;20030;-74
2022/12/08 12:52:45;;;;;;;4.43;1.87;;;;;;;;;;4425652;32;20017;-74
2022/12/08 12:55:10;;;;;;;6.40;1.83;;;;;;;;;;4419842;32;20100;-75
2022/12/08 12:57:36;;;;;;;2.22;1.52;;;;;;;;;;4433816;32;20107;-74
2022/12/08 13:00:01;;;;;;;;;;;;;;;;;;4428899;32;20037;-74
2022/12/08 13:02:27;;;;;;;1.62;1.12;;;;;;;;;;4425939;32;20302;-74
2022/12/08 13:05:02;;;;;;;1.85;1.70;;;;;;;;;;4426265;32;20076;-74
2022/12/08 13:07:42;;;;;;;3.15;1.58;;;;;;;;;;4413946;32;20097;-74
2022/12/08 13:10:16;;;;;;;2.70;1.40;;;;;;;;;;4428926;32;20092;-73
2022/12/08 13:12:43;;;;;;;4.40;2.50;;;;;;;;;;4427959;32;20085;-74
2022/12/08 13:15:17;;;;;;;5.93;1.80;;;;;;;;;;4429086;32;20069;-75
2022/12/08 13:17:43;;;;;;;3.53;2.05;;;;;;;;;;4427984;32;20090;-73
2022/12/08 13:20:16;;;;;;;4.85;1.98;;;;;;;;;;4419821;32;20180;-74
2022/12/08 13:23:02;;;;;;;5.30;2.37;;;;;;;;;;4427988;32;20086;-74
2022/12/08 13:25:43;;;;;;;3.87;2.47;;;;;;;;;;4427043;32;20482;-74
2022/12/08 13:28:26;;;;;;;6.45;2.40;;;;;;;;;;4428448;32;20126;-73
2022/12/08 13:30:53;;;;;;;4.10;2.45;;;;;;;;;;4426885;32;20037;-74
2022/12/08 13:33:23;;;;;;;4.07;2.30;;;;;;;;;;4427022;32;20037;-73
2022/12/08 13:36:09;;;;;;;4.12;2.12;;;;;;;;;;4428103;32;20476;-74
2022/12/08 13:38:36;;;;;;;11.20;2.60;;;;;;;;;;4428736;32;20439;-74
2022/12/08 13:41:04;;;;;;;3.35;2.10;;;;;;;;;;4428206;32;20037;-73
2022/12/08 13:43:33;;;;;;;5.30;2.72;;;;;;;;;;4425238;32;20077;-74
2022/12/08 13:45:59;;;;;;;6.32;2.58;;;;;;;;;;4420526;32;20083;-73
2022/12/08 13:48:27;;;;;;;6.65;3.87;;;;;;;;;;4427798;32;20102;-74
2022/12/08 13:50:55;;;;;;;4.12;2.45;;;;;;;;;;4425265;32;20130;-73
2022/12/08 13:53:22;;;;;;;3.83;2.28;;;;;;;;;;4427242;32;20059;-73
2022/12/08 13:55:49;;;;;;;4.60;2.45;;;;;;;;;;4419629;32;20092;-74
2022/12/08 13:58:17;;;;;;;5.00;2.25;;;;;;;;;;4425780;32;20062;-75
2022/12/08 14:00:52;;;;;;;5.22;2.00;;;;;;;;;;4411176;32;20034;-75
2022/12/08 14:03:17;;;;;;;5.50;2.15;;;;;;;;;;4426308;32;20063;-73
2022/12/08 14:05:42;;;;;;;;;;;;;;;;;;4426055;32;20054;-73
2022/12/08 14:08:15;;;;;;;4.80;2.60;;;;;;;;;;4428335;32;19948;-73
2022/12/08 14:10:40;;;;;;;8.32;2.72;;;;;;;;;;4414982;32;20030;-73
2022/12/08 14:13:05;;;;;;;;;;;;;;;;;;4427704;32;20110;-73
2022/12/08 14:15:31;;;;;;;6.02;3.12;;;;;;;;;;4425780;32;19937;-74
2022/12/08 14:17:56;;;;;;;;;;;;;;;;;;4425784;32;20087;-73
2022/12/08 14:20:32;;;;;;;3.75;2.58;;;;;;;;;;4426446;32;19944;-76
2022/12/08 14:22:58;;;;;;;5.00;2.50;;;;;;;;;;4424611;32;20121;-77
2022/12/08 14:25:23;;;;;;;;;;;;;;;;;;4430914;32;20049;-77
2022/12/08 14:27:49;;;;;;;4.68;2.86;;;;;;;;;;4430868;32;20002;-77
2022/12/08 14:30:14;;;;;;;;;;;;;;;;;;4422146;32;20062;-77
2022/12/08 14:32:47;;;;;;;10.25;3.80;;;;;;;;;;4429321;32;19982;-76
2022/12/08 14:35:24;;;;;;;4.30;3.75;;;;;;;;;;4428756;32;20478;-76
2022/12/08 14:37:49;;;;;;;;;;;;;;;;;;4420291;32;20073;-76
2022/12/08 14:40:17;;;;;;;7.37;4.15;;;;;;;;;;4432122;32;19953;-75
2022/12/08 14:42:44;;;;;;;9.38;4.00;;;;;;;;;;4433196;32;20167;-75
2022/12/08 14:45:11;;;;;;;6.35;2.95;;;;;;;;;;4429101;32;20069;-76
2022/12/08 14:47:37;;;;;;;5.10;2.00;;;;;;;;;;4427121;32;20038;-76
2022/12/08 14:50:02;;;;;;;;;;;;;;;;;;4429927;32;20026;-76
2022/12/08 14:52:28;;;;;;;4.28;2.35;;;;;;;;;;4419817;32;19941;-75
2022/12/08 14:54:53;;;;;;;;;;;;;;;;;;4429877;32;20041;-75
2022/12/08 14:57:18;;;;;;;4.87;1.80;;;;;;;;;;4428323;32;19947;-76
2022/12/08 14:59:44;;;;;;;9.25;4.25;;;;;;;;;;4425626;32;20029;-76
2022/12/08 15:02:20;;;;;;;6.35;2.95;;;;;;;;;;4418306;32;20058;-76
2022/12/08 15:04:47;;;;;;;7.87;3.85;;;;;;;;;;4428550;32;20034;-76
2022/12/08 15:07:21;;;;;;;6.93;3.00;;;;;;;;;;4427809;32;20067;-75
2022/12/08 15:09:48;;;;;;;9.50;5.12;;;;;;;;;;4427698;32;20076;-75
2022/12/08 15:12:14;;;;;;;7.47;3.62;;;;;;;;;;4427401;32;20038;-75
2022/12/08 15:14:39;;;;;;;;;;;;;;;;;;4427920;32;20504;-75
2022/12/08 15:17:24;;;;;;;5.62;3.37;;;;;;;;;;4428995;32;20503;-75
2022/12/08 15:19:56;;;;;;;7.50;4.07;;;;;;;;;;4426392;32;20115;-75
2022/12/08 15:22:21;;;;;;;6.97;3.58;;;;;;;;;;4429475;32;20033;-76
2022/12/08 15:24:47;;;;;;;;;;;;;;;;;;4426910;32;20534;-75